sensor_id;sensor_type;location;lat;lon;timestamp;pressure;altitude;pressure_sealevel;temperature;humidity
27984;BME280;15317;50.360;8.726;2024-02-16T00:02:08;99340.56;;;8.50;100.00
27984;BME280;15317;50.360;8.726;2024-02-16T00:07:13;99344.25;;;8.76;100.00
27984;BME280;15317;50.360;8.726;2024-02-16T00:12:16;99336.31;;;8.92;100.00
27984;BME280;15317;50.360;8.726;2024-02-16T00:17:19;99325.63;;;9.08;100.00
27984;BME280;15317;50.360;8.726;2024-02-16T00:22:24;99330.75;;;9.11;100.00
27984;BME280;15317;50.360;8.726;2024-02-16T00:27:28;99315.88;;;9.16;100.00
27984;BME280;15317;50.360;8.726;2024-02-16T00:32:31;99305.59;;;9.01;100.00
27984;BME280;15317;50.360;8.726;2024-02-16T00:37:36;99301.88;;;8.85;100.00
27984;BME280;15317;50.360;8.726;2024-02-16T00:42:40;99295.84;;;8.73;100.00
27984;BME280;15317;50.360;8.726;2024-02-16T00:47:43;99315.00;;;8.62;100.00
27984;BME280;15317;50.360;8.726;2024-02-16T00:52:48;99297.38;;;8.58;100.00
27984;BME280;15317;50.360;8.726;2024-02-16T00:57:51;99299.22;;;8.57;100.00
27984;BME280;15317;50.360;8.726;2024-02-16T01:02:55;99310.03;;;8.57;100.00
27984;BME280;15317;50.360;8.726;2024-02-16T01:07:59;99310.91;;;8.58;100.00
27984;BME280;15317;50.360;8.726;2024-02-16T01:13:03;99308.03;;;8.59;100.00
27984;BME280;15317;50.360;8.726;2024-02-16T01:18:07;99306.34;;;8.58;100.00
27984;BME280;15317;50.360;8.726;2024-02-16T01:23:12;99300.34;;;8.55;100.00
27984;BME280;15317;50.360;8.726;2024-02-16T01:28:15;99296.41;;;8.49;100.00
27984;BME280;15317;50.360;8.726;2024-02-16T01:33:19;99297.53;;;8.47;100.00
27984;BME280;15317;50.360;8.726;2024-02-16T01:38:24;99298.16;;;8.41;100.00
27984;BME280;15317;50.360;8.726;2024-02-16T01:43:28;99311.28;;;8.36;100.00
27984;BME280;15317;50.360;8.726;2024-02-16T01:48:31;99302.72;;;8.40;100.00
27984;BME280;15317;50.360;8.726;2024-02-16T01:53:37;99297.75;;;8.36;100.00
27984;BME280;15317;50.360;8.726;2024-02-16T01:58:41;99299.06;;;8.31;100.00
27984;BME280;15317;50.360;8.726;2024-02-16T02:03:45;99303.03;;;8.27;100.00
27984;BME280;15317;50.360;8.726;2024-02-16T02:08:50;99299.09;;;8.22;100.00
27984;BME280;15317;50.360;8.726;2024-02-16T02:13:53;99305.81;;;8.18;100.00
27984;BME280;15317;50.360;8.726;2024-02-16T02:18:56;99313.06;;;8.17;100.00
27984;BME280;15317;50.360;8.726;2024-02-16T02:24:01;99305.09;;;8.16;100.00
27984;BME280;15317;50.360;8.726;2024-02-16T02:29:05;99289.31;;;8.11;100.00
27984;BME280;15317;50.360;8.726;2024-02-16T02:34:08;99287.50;;;8.02;100.00
27984;BME280;15317;50.360;8.726;2024-02-16T02:39:14;99286.09;;;7.98;100.00
27984;BME280;15317;50.360;8.726;2024-02-16T02:44:18;99275.84;;;7.92;100.00
27984;BME280;15317;50.360;8.726;2024-02-16T02:49:21;99273.59;;;7.87;100.00
27984;BME280;15317;50.360;8.726;2024-02-16T02:54:26;99278.47;;;7.84;100.00
27984;BME280;15317;50.360;8.726;2024-02-16T02:59:29;99271.03;;;7.86;100.00
27984;BME280;15317;50.360;8.726;2024-02-16T03:04:32;99274.44;;;7.88;100.00
27984;BME280;15317;50.360;8.726;2024-02-16T03:09:38;99269.16;;;7.96;100.00
27984;BME280;15317;50.360;8.726;2024-02-16T03:14:43;99267.25;;;8.06;100.00
27984;BME280;15317;50.360;8.726;2024-02-16T03:19:47;99271.16;;;8.21;100.00
27984;BME280;15317;50.360;8.726;2024-02-16T03:24:52;99269.19;;;8.23;100.00
27984;BME280;15317;50.360;8.726;2024-02-16T03:29:55;99270.63;;;8.18;100.00
27984;BME280;15317;50.360;8.726;2024-02-16T03:34:59;99268.34;;;8.13;100.00
27984;BME280;15317;50.360;8.726;2024-02-16T03:40:06;99260.66;;;8.18;100.00
27984;BME280;15317;50.360;8.726;2024-02-16T03:45:10;99259.25;;;8.14;100.00
27984;BME280;15317;50.360;8.726;2024-02-16T03:50:14;99262.09;;;8.13;100.00
27984;BME280;15317;50.360;8.726;2024-02-16T03:55:19;99263.13;;;8.12;100.00
27984;BME280;15317;50.360;8.726;2024-02-16T04:00:23;99272.91;;;8.13;100.00
27984;BME280;15317;50.360;8.726;2024-02-16T04:05:27;99264.13;;;8.11;100.00
27984;BME280;15317;50.360;8.726;2024-02-16T04:10:36;99272.06;;;8.12;100.00
27984;BME280;15317;50.360;8.726;2024-02-16T04:15:39;99272.38;;;8.09;100.00
27984;BME280;15317;50.360;8.726;2024-02-16T04:20:43;99274.09;;;8.10;100.00
27984;BME280;15317;50.360;8.726;2024-02-16T04:25:47;99282.19;;;8.10;100.00
27984;BME280;15317;50.360;8.726;2024-02-16T04:30:50;99287.91;;;8.07;100.00
27984;BME280;15317;50.360;8.726;2024-02-16T04:35:54;99289.47;;;8.10;100.00
27984;BME280;15317;50.360;8.726;2024-02-16T04:40:58;99290.00;;;8.13;100.00
27984;BME280;15317;50.360;8.726;2024-02-16T04:46:02;99296.53;;;8.20;100.00
27984;BME280;15317;50.360;8.726;2024-02-16T04:51:05;99294.81;;;8.19;100.00
27984;BME280;15317;50.360;8.726;2024-02-16T04:56:10;99290.81;;;8.23;100.00
27984;BME280;15317;50.360;8.726;2024-02-16T05:01:14;99298.22;;;8.21;100.00
27984;BME280;15317;50.360;8.726;2024-02-16T05:06:17;99297.63;;;8.27;100.00
27984;BME280;15317;50.360;8.726;2024-02-16T05:11:21;99296.19;;;8.33;100.00
27984;BME280;15317;50.360;8.726;2024-02-16T05:16:27;99284.44;;;8.52;100.00
27984;BME280;15317;50.360;8.726;2024-02-16T05:21:30;99286.56;;;8.48;100.00
27984;BME280;15317;50.360;8.726;2024-02-16T05:26:36;99295.88;;;8.46;100.00
27984;BME280;15317;50.360;8.726;2024-02-16T05:31:39;99290.22;;;8.39;100.00
27984;BME280;15317;50.360;8.726;2024-02-16T05:36:43;99282.84;;;8.31;100.00
27984;BME280;15317;50.360;8.726;2024-02-16T05:41:48;99271.56;;;8.26;100.00
27984;BME280;15317;50.360;8.726;2024-02-16T05:46:51;99283.41;;;8.25;100.00
27984;BME280;15317;50.360;8.726;2024-02-16T05:51:54;99275.81;;;8.39;100.00
27984;BME280;15317;50.360;8.726;2024-02-16T05:57:17;99284.59;;;8.50;100.00
27984;BME280;15317;50.360;8.726;2024-02-16T06:02:21;99276.38;;;8.60;100.00
27984;BME280;15317;50.360;8.726;2024-02-16T06:07:27;99278.03;;;8.53;100.00
27984;BME280;15317;50.360;8.726;2024-02-16T06:12:32;99280.72;;;8.53;100.00
27984;BME280;15317;50.360;8.726;2024-02-16T06:17:35;99285.88;;;8.46;100.00
27984;BME280;15317;50.360;8.726;2024-02-16T06:22:39;99293.00;;;8.47;100.00
27984;BME280;15317;50.360;8.726;2024-02-16T06:27:44;99282.47;;;8.44;100.00
27984;BME280;15317;50.360;8.726;2024-02-16T06:32:47;99289.50;;;8.37;100.00
27984;BME280;15317;50.360;8.726;2024-02-16T06:37:51;99287.75;;;8.46;100.00
27984;BME280;15317;50.360;8.726;2024-02-16T06:42:55;99291.56;;;8.53;100.00
27984;BME280;15317;50.360;8.726;2024-02-16T06:47:59;99296.66;;;8.56;100.00
27984;BME280;15317;50.360;8.726;2024-02-16T06:53:03;99294.94;;;8.55;100.00
27984;BME280;15317;50.360;8.726;2024-02-16T06:58:07;99290.53;;;8.54;100.00
27984;BME280;15317;50.360;8.726;2024-02-16T07:03:11;99292.94;;;8.57;100.00
27984;BME280;15317;50.360;8.726;2024-02-16T07:08:14;99306.34;;;8.58;100.00
27984;BME280;15317;50.360;8.726;2024-02-16T07:13:19;99312.84;;;8.65;100.00
27984;BME280;15317;50.360;8.726;2024-02-16T07:18:23;99317.78;;;8.70;100.00
27984;BME280;15317;50.360;8.726;2024-02-16T07:23:26;99324.16;;;8.79;100.00
27984;BME280;15317;50.360;8.726;2024-02-16T07:28:31;99326.97;;;8.87;100.00
27984;BME280;15317;50.360;8.726;2024-02-16T07:33:34;99351.41;;;8.95;100.00
27984;BME280;15317;50.360;8.726;2024-02-16T07:38:38;99348.94;;;9.01;100.00
27984;BME280;15317;50.360;8.726;2024-02-16T07:43:42;99339.59;;;9.14;100.00
27984;BME280;15317;50.360;8.726;2024-02-16T07:48:46;99351.19;;;9.24;100.00
27984;BME280;15317;50.360;8.726;2024-02-16T07:53:49;99360.16;;;9.42;100.00
27984;BME280;15317;50.360;8.726;2024-02-16T07:58:54;99363.41;;;9.63;100.00
27984;BME280;15317;50.360;8.726;2024-02-16T08:03:57;99350.34;;;9.84;100.00
27984;BME280;15317;50.360;8.726;2024-02-16T08:09:06;99356.06;;;9.99;100.00
27984;BME280;15317;50.360;8.726;2024-02-16T08:14:10;99363.47;;;10.15;100.00
27984;BME280;15317;50.360;8.726;2024-02-16T08:19:13;99361.91;;;10.30;100.00
27984;BME280;15317;50.360;8.726;2024-02-16T08:24:17;99357.13;;;10.32;100.00
27984;BME280;15317;50.360;8.726;2024-02-16T08:29:21;99362.25;;;10.35;100.00
27984;BME280;15317;50.360;8.726;2024-02-16T08:34:24;99357.81;;;10.34;100.00
27984;BME280;15317;50.360;8.726;2024-02-16T08:39:28;99362.72;;;10.30;100.00
27984;BME280;15317;50.360;8.726;2024-02-16T08:44:33;99367.69;;;10.35;100.00
27984;BME280;15317;50.360;8.726;2024-02-16T08:49:36;99378.53;;;10.35;100.00
27984;BME280;15317;50.360;8.726;2024-02-16T08:54:42;99376.53;;;10.37;100.00
27984;BME280;15317;50.360;8.726;2024-02-16T08:59:47;99370.09;;;10.46;100.00
27984;BME280;15317;50.360;8.726;2024-02-16T09:04:51;99372.31;;;10.51;100.00
27984;BME280;15317;50.360;8.726;2024-02-16T09:09:54;99385.28;;;10.57;100.00
27984;BME280;15317;50.360;8.726;2024-02-16T09:14:59;99387.81;;;10.58;100.00
27984;BME280;15317;50.360;8.726;2024-02-16T09:20:03;99386.94;;;10.58;100.00
27984;BME280;15317;50.360;8.726;2024-02-16T09:25:07;99397.81;;;10.58;100.00
27984;BME280;15317;50.360;8.726;2024-02-16T09:30:12;99393.94;;;10.60;100.00
27984;BME280;15317;50.360;8.726;2024-02-16T09:35:16;99413.28;;;10.57;100.00
27984;BME280;15317;50.360;8.726;2024-02-16T09:40:19;99398.38;;;10.61;100.00
27984;BME280;15317;50.360;8.726;2024-02-16T09:45:25;99397.06;;;10.74;100.00
27984;BME280;15317;50.360;8.726;2024-02-16T09:50:30;99403.88;;;10.78;100.00
27984;BME280;15317;50.360;8.726;2024-02-16T09:55:33;99409.16;;;10.87;100.00
27984;BME280;15317;50.360;8.726;2024-02-16T10:00:38;99408.00;;;10.90;100.00
27984;BME280;15317;50.360;8.726;2024-02-16T10:05:42;99411.91;;;10.95;100.00
27984;BME280;15317;50.360;8.726;2024-02-16T10:10:46;99407.19;;;11.05;100.00
27984;BME280;15317;50.360;8.726;2024-02-16T10:16:04;99426.13;;;11.23;100.00
27984;BME280;15317;50.360;8.726;2024-02-16T10:21:08;99437.03;;;11.47;100.00
27984;BME280;15317;50.360;8.726;2024-02-16T10:26:12;99425.03;;;11.74;100.00
27984;BME280;15317;50.360;8.726;2024-02-16T10:31:17;99436.81;;;11.99;100.00
27984;BME280;15317;50.360;8.726;2024-02-16T10:36:21;99439.81;;;12.28;100.00
27984;BME280;15317;50.360;8.726;2024-02-16T10:41:26;99446.97;;;12.30;100.00
27984;BME280;15317;50.360;8.726;2024-02-16T10:46:33;99435.56;;;12.42;100.00
27984;BME280;15317;50.360;8.726;2024-02-16T10:51:39;99438.78;;;12.54;100.00
27984;BME280;15317;50.360;8.726;2024-02-16T10:56:43;99438.72;;;12.70;100.00
27984;BME280;15317;50.360;8.726;2024-02-16T11:01:48;99444.31;;;12.77;100.00
27984;BME280;15317;50.360;8.726;2024-02-16T11:07:01;99441.38;;;12.94;100.00
27984;BME280;15317;50.360;8.726;2024-02-16T11:12:12;99442.53;;;13.16;100.00
27984;BME280;15317;50.360;8.726;2024-02-16T11:17:22;99435.41;;;13.38;100.00
27984;BME280;15317;50.360;8.726;2024-02-16T11:22:27;99436.09;;;13.40;100.00
27984;BME280;15317;50.360;8.726;2024-02-16T11:27:31;99434.75;;;13.36;100.00
27984;BME280;15317;50.360;8.726;2024-02-16T11:32:37;99442.53;;;13.47;100.00
27984;BME280;15317;50.360;8.726;2024-02-16T11:37:43;99425.09;;;13.56;100.00
27984;BME280;15317;50.360;8.726;2024-02-16T11:42:47;99433.44;;;13.55;100.00
27984;BME280;15317;50.360;8.726;2024-02-16T11:48:03;99432.28;;;13.49;100.00
27984;BME280;15317;50.360;8.726;2024-02-16T11:53:06;99431.25;;;13.50;100.00
27984;BME280;15317;50.360;8.726;2024-02-16T11:58:09;99428.84;;;13.55;100.00
27984;BME280;15317;50.360;8.726;2024-02-16T12:03:19;99435.66;;;13.51;100.00
27984;BME280;15317;50.360;8.726;2024-02-16T12:08:31;99432.59;;;13.54;100.00
27984;BME280;15317;50.360;8.726;2024-02-16T12:13:34;99445.25;;;13.47;100.00
27984;BME280;15317;50.360;8.726;2024-02-16T12:18:39;99445.44;;;13.45;100.00
27984;BME280;15317;50.360;8.726;2024-02-16T12:23:43;99452.81;;;13.37;100.00
27984;BME280;15317;50.360;8.726;2024-02-16T12:28:47;99449.41;;;13.35;100.00
27984;BME280;15317;50.360;8.726;2024-02-16T12:33:52;99456.63;;;13.28;100.00
27984;BME280;15317;50.360;8.726;2024-02-16T12:38:55;99450.66;;;13.24;100.00
27984;BME280;15317;50.360;8.726;2024-02-16T12:43:59;99459.97;;;13.38;100.00
27984;BME280;15317;50.360;8.726;2024-02-16T12:49:04;99456.00;;;13.49;100.00
27984;BME280;15317;50.360;8.726;2024-02-16T12:54:08;99456.13;;;13.55;100.00
27984;BME280;15317;50.360;8.726;2024-02-16T12:59:16;99463.16;;;13.72;100.00
27984;BME280;15317;50.360;8.726;2024-02-16T13:04:21;99462.22;;;13.88;100.00
27984;BME280;15317;50.360;8.726;2024-02-16T13:09:25;99458.69;;;14.02;100.00
27984;BME280;15317;50.360;8.726;2024-02-16T13:14:30;99447.19;;;14.30;100.00
27984;BME280;15317;50.360;8.726;2024-02-16T13:19:35;99449.38;;;14.72;100.00
27984;BME280;15317;50.360;8.726;2024-02-16T13:24:38;99454.47;;;14.89;100.00
27984;BME280;15317;50.360;8.726;2024-02-16T13:29:42;99446.75;;;14.93;100.00
27984;BME280;15317;50.360;8.726;2024-02-16T13:34:47;99446.34;;;14.96;100.00
27984;BME280;15317;50.360;8.726;2024-02-16T13:39:50;99443.06;;;15.00;100.00
27984;BME280;15317;50.360;8.726;2024-02-16T13:44:54;99440.97;;;14.88;100.00
27984;BME280;15317;50.360;8.726;2024-02-16T13:49:58;99464.06;;;14.71;100.00
27984;BME280;15317;50.360;8.726;2024-02-16T13:55:02;99461.97;;;14.43;100.00
27984;BME280;15317;50.360;8.726;2024-02-16T14:00:06;99464.41;;;14.15;100.00
27984;BME280;15317;50.360;8.726;2024-02-16T14:05:11;99465.69;;;14.05;100.00
27984;BME280;15317;50.360;8.726;2024-02-16T14:10:15;99461.47;;;13.94;100.00
27984;BME280;15317;50.360;8.726;2024-02-16T14:15:18;99479.09;;;13.92;100.00
27984;BME280;15317;50.360;8.726;2024-02-16T14:20:23;99472.97;;;13.90;100.00
27984;BME280;15317;50.360;8.726;2024-02-16T14:25:27;99487.38;;;13.75;100.00
27984;BME280;15317;50.360;8.726;2024-02-16T14:30:30;99487.44;;;13.67;100.00
27984;BME280;15317;50.360;8.726;2024-02-16T14:35:37;99491.31;;;13.73;100.00
27984;BME280;15317;50.360;8.726;2024-02-16T14:40:40;99503.81;;;13.67;100.00
27984;BME280;15317;50.360;8.726;2024-02-16T14:45:44;99504.53;;;13.61;100.00
27984;BME280;15317;50.360;8.726;2024-02-16T14:50:49;99510.28;;;13.66;100.00
27984;BME280;15317;50.360;8.726;2024-02-16T14:55:52;99515.22;;;13.71;100.00
27984;BME280;15317;50.360;8.726;2024-02-16T15:00:56;99521.88;;;13.68;100.00
27984;BME280;15317;50.360;8.726;2024-02-16T15:06:01;99525.63;;;13.67;100.00
27984;BME280;15317;50.360;8.726;2024-02-16T15:11:05;99522.03;;;13.75;100.00
27984;BME280;15317;50.360;8.726;2024-02-16T15:16:09;99533.50;;;13.70;100.00
27984;BME280;15317;50.360;8.726;2024-02-16T15:21:14;99534.50;;;13.69;100.00
27984;BME280;15317;50.360;8.726;2024-02-16T15:26:17;99543.75;;;13.60;100.00
27984;BME280;15317;50.360;8.726;2024-02-16T15:31:21;99556.13;;;13.40;100.00
27984;BME280;15317;50.360;8.726;2024-02-16T15:36:25;99563.00;;;13.28;100.00
27984;BME280;15317;50.360;8.726;2024-02-16T15:41:29;99561.28;;;13.11;100.00
27984;BME280;15317;50.360;8.726;2024-02-16T15:46:33;99569.16;;;12.97;100.00
27984;BME280;15317;50.360;8.726;2024-02-16T15:51:38;99578.41;;;12.80;100.00
27984;BME280;15317;50.360;8.726;2024-02-16T15:56:41;99577.88;;;12.77;100.00
27984;BME280;15317;50.360;8.726;2024-02-16T16:01:45;99582.84;;;12.65;100.00
27984;BME280;15317;50.360;8.726;2024-02-16T16:06:50;99574.16;;;12.53;100.00
27984;BME280;15317;50.360;8.726;2024-02-16T16:11:55;99574.31;;;12.60;100.00
27984;BME280;15317;50.360;8.726;2024-02-16T16:16:58;99581.81;;;12.74;100.00
27984;BME280;15317;50.360;8.726;2024-02-16T16:22:03;99581.44;;;12.77;100.00
27984;BME280;15317;50.360;8.726;2024-02-16T16:27:07;99594.25;;;12.60;100.00
27984;BME280;15317;50.360;8.726;2024-02-16T16:32:10;99606.31;;;12.50;100.00
27984;BME280;15317;50.360;8.726;2024-02-16T16:37:15;99618.06;;;12.34;100.00
27984;BME280;15317;50.360;8.726;2024-02-16T16:42:18;99620.75;;;12.18;100.00
27984;BME280;15317;50.360;8.726;2024-02-16T16:47:21;99627.03;;;12.10;100.00
27984;BME280;15317;50.360;8.726;2024-02-16T16:52:26;99630.81;;;12.25;100.00
27984;BME280;15317;50.360;8.726;2024-02-16T16:57:29;99636.97;;;12.52;100.00
27984;BME280;15317;50.360;8.726;2024-02-16T17:02:33;99637.69;;;12.54;100.00
27984;BME280;15317;50.360;8.726;2024-02-16T17:07:37;99659.09;;;12.33;100.00
27984;BME280;15317;50.360;8.726;2024-02-16T17:12:41;99675.06;;;12.19;100.00
27984;BME280;15317;50.360;8.726;2024-02-16T17:17:46;99686.72;;;12.04;100.00
27984;BME280;15317;50.360;8.726;2024-02-16T17:22:55;99704.69;;;11.88;100.00
27984;BME280;15317;50.360;8.726;2024-02-16T17:27:58;99722.34;;;11.76;100.00
27984;BME280;15317;50.360;8.726;2024-02-16T17:33:01;99733.63;;;11.64;100.00
27984;BME280;15317;50.360;8.726;2024-02-16T17:38:06;99745.16;;;11.58;100.00
27984;BME280;15317;50.360;8.726;2024-02-16T17:43:09;99749.53;;;11.51;100.00
27984;BME280;15317;50.360;8.726;2024-02-16T17:48:13;99758.16;;;11.46;100.00
27984;BME280;15317;50.360;8.726;2024-02-16T17:53:18;99757.47;;;11.44;100.00
27984;BME280;15317;50.360;8.726;2024-02-16T17:58:21;99759.63;;;11.40;100.00
27984;BME280;15317;50.360;8.726;2024-02-16T18:03:24;99752.81;;;11.36;100.00
27984;BME280;15317;50.360;8.726;2024-02-16T18:08:29;99771.47;;;11.31;100.00
27984;BME280;15317;50.360;8.726;2024-02-16T18:13:32;99772.13;;;11.25;100.00
27984;BME280;15317;50.360;8.726;2024-02-16T18:18:36;99776.50;;;11.26;100.00
27984;BME280;15317;50.360;8.726;2024-02-16T18:23:41;99778.16;;;11.19;100.00
27984;BME280;15317;50.360;8.726;2024-02-16T18:28:49;99782.22;;;11.15;100.00
27984;BME280;15317;50.360;8.726;2024-02-16T18:33:52;99781.91;;;11.18;100.00
27984;BME280;15317;50.360;8.726;2024-02-16T18:38:57;99783.22;;;11.14;100.00
27984;BME280;15317;50.360;8.726;2024-02-16T18:44:01;99781.28;;;11.06;100.00
27984;BME280;15317;50.360;8.726;2024-02-16T18:49:05;99781.75;;;11.02;100.00
27984;BME280;15317;50.360;8.726;2024-02-16T18:54:09;99784.75;;;10.99;100.00
27984;BME280;15317;50.360;8.726;2024-02-16T18:59:14;99795.25;;;10.94;100.00
27984;BME280;15317;50.360;8.726;2024-02-16T19:04:18;99799.97;;;10.92;100.00
27984;BME280;15317;50.360;8.726;2024-02-16T19:09:23;99798.59;;;10.88;100.00
27984;BME280;15317;50.360;8.726;2024-02-16T19:14:26;99805.75;;;10.89;100.00
27984;BME280;15317;50.360;8.726;2024-02-16T19:19:29;99813.03;;;10.88;100.00
27984;BME280;15317;50.360;8.726;2024-02-16T19:24:34;99818.47;;;10.88;100.00
27984;BME280;15317;50.360;8.726;2024-02-16T19:29:45;99812.31;;;10.86;100.00
27984;BME280;15317;50.360;8.726;2024-02-16T19:34:48;99814.19;;;10.86;100.00
27984;BME280;15317;50.360;8.726;2024-02-16T19:39:53;99813.31;;;10.85;100.00
27984;BME280;15317;50.360;8.726;2024-02-16T19:44:57;99809.59;;;10.86;100.00
27984;BME280;15317;50.360;8.726;2024-02-16T19:50:00;99825.75;;;10.88;100.00
27984;BME280;15317;50.360;8.726;2024-02-16T19:55:08;99826.63;;;10.88;100.00
27984;BME280;15317;50.360;8.726;2024-02-16T20:00:13;99838.34;;;10.89;100.00
27984;BME280;15317;50.360;8.726;2024-02-16T20:05:16;99850.94;;;10.90;100.00
27984;BME280;15317;50.360;8.726;2024-02-16T20:10:22;99849.06;;;10.90;100.00
27984;BME280;15317;50.360;8.726;2024-02-16T20:15:26;99851.22;;;10.87;100.00
27984;BME280;15317;50.360;8.726;2024-02-16T20:20:31;99853.94;;;10.87;100.00
27984;BME280;15317;50.360;8.726;2024-02-16T20:25:35;99866.25;;;10.91;100.00
27984;BME280;15317;50.360;8.726;2024-02-16T20:30:40;99866.25;;;10.91;100.00
27984;BME280;15317;50.360;8.726;2024-02-16T20:35:43;99875.06;;;10.93;100.00
27984;BME280;15317;50.360;8.726;2024-02-16T20:40:48;99882.69;;;10.89;100.00
27984;BME280;15317;50.360;8.726;2024-02-16T20:45:51;99882.53;;;10.91;100.00
27984;BME280;15317;50.360;8.726;2024-02-16T20:50:54;99886.78;;;10.93;100.00
27984;BME280;15317;50.360;8.726;2024-02-16T20:55:59;99901.34;;;11.02;100.00
27984;BME280;15317;50.360;8.726;2024-02-16T21:01:02;99914.72;;;11.13;100.00
27984;BME280;15317;50.360;8.726;2024-02-16T21:06:06;99924.69;;;11.22;100.00
27984;BME280;15317;50.360;8.726;2024-02-16T21:11:11;99928.19;;;11.32;100.00
27984;BME280;15317;50.360;8.726;2024-02-16T21:16:14;99943.19;;;11.36;100.00
27984;BME280;15317;50.360;8.726;2024-02-16T21:21:17;99954.06;;;11.36;100.00
27984;BME280;15317;50.360;8.726;2024-02-16T21:26:24;99955.94;;;11.36;100.00
27984;BME280;15317;50.360;8.726;2024-02-16T21:31:27;99975.59;;;11.30;100.00
27984;BME280;15317;50.360;8.726;2024-02-16T21:36:30;99974.34;;;11.24;100.00
27984;BME280;15317;50.360;8.726;2024-02-16T21:41:34;99986.69;;;11.19;100.00
27984;BME280;15317;50.360;8.726;2024-02-16T21:46:38;99988.47;;;11.28;100.00
27984;BME280;15317;50.360;8.726;2024-02-16T21:51:41;100000.41;;;11.17;100.00
27984;BME280;15317;50.360;8.726;2024-02-16T21:56:46;100015.91;;;11.07;100.00
27984;BME280;15317;50.360;8.726;2024-02-16T22:01:50;100026.09;;;11.05;100.00
27984;BME280;15317;50.360;8.726;2024-02-16T22:06:53;100034.34;;;11.13;100.00
27984;BME280;15317;50.360;8.726;2024-02-16T22:11:58;100047.25;;;11.11;100.00
27984;BME280;15317;50.360;8.726;2024-02-16T22:17:02;100045.81;;;11.07;100.00
27984;BME280;15317;50.360;8.726;2024-02-16T22:22:06;100054.97;;;11.06;100.00
27984;BME280;15317;50.360;8.726;2024-02-16T22:27:11;100062.97;;;11.07;100.00
27984;BME280;15317;50.360;8.726;2024-02-16T22:32:14;100057.59;;;10.98;100.00
27984;BME280;15317;50.360;8.726;2024-02-16T22:37:19;100066.75;;;10.97;100.00
27984;BME280;15317;50.360;8.726;2024-02-16T22:42:24;100073.47;;;10.93;100.00
27984;BME280;15317;50.360;8.726;2024-02-16T22:47:27;100082.34;;;10.85;100.00
27984;BME280;15317;50.360;8.726;2024-02-16T22:52:31;100096.41;;;10.81;100.00
27984;BME280;15317;50.360;8.726;2024-02-16T22:57:36;100102.13;;;10.78;100.00
27984;BME280;15317;50.360;8.726;2024-02-16T23:02:39;100105.13;;;10.75;100.00
27984;BME280;15317;50.360;8.726;2024-02-16T23:07:42;100114.28;;;10.74;100.00
27984;BME280;15317;50.360;8.726;2024-02-16T23:12:47;100126.00;;;10.64;100.00
27984;BME280;15317;50.360;8.726;2024-02-16T23:17:52;100127.88;;;10.45;100.00
27984;BME280;15317;50.360;8.726;2024-02-16T23:22:59;100131.50;;;10.36;100.00
27984;BME280;15317;50.360;8.726;2024-02-16T23:28:06;100140.91;;;10.22;100.00
27984;BME280;15317;50.360;8.726;2024-02-16T23:33:11;100147.44;;;10.10;100.00
27984;BME280;15317;50.360;8.726;2024-02-16T23:38:14;100155.69;;;9.89;100.00
27984;BME280;15317;50.360;8.726;2024-02-16T23:43:19;100154.53;;;9.82;100.00
27984;BME280;15317;50.360;8.726;2024-02-16T23:48:22;100173.16;;;9.66;100.00
27984;BME280;15317;50.360;8.726;2024-02-16T23:53:26;100180.72;;;9.62;100.00
27984;BME280;15317;50.360;8.726;2024-02-16T23:58:31;100181.88;;;9.69;100.00
